Time;durP1;ratioP1;P1;durP2;ratioP2;P2;SDS_P1;SDS_P2;PMS_P1;PMS_P2;Temp;Humidity;BMP_temperature;BMP_pressure;BME280_temperature;BME280_humidity;BME280_pressure;Samples;Min_cycle;Max_cycle;Signal;HPM_P1;HPM_P2
2023/04/15 00:02:18;;;;;;;7.15;3.15;;;;;;;;;;5073410;28;20503;-53
2023/04/15 00:04:45;;;;;;;6.57;3.28;;;;;;;;;;5073402;28;20516;-56
2023/04/15 00:07:12;;;;;;;8.10;3.88;;;;;;;;;;5073449;28;20056;-53
2023/04/15 00:09:39;;;;;;;6.80;3.47;;;;;;;;;;5073255;28;20052;-53
2023/04/15 00:12:06;;;;;;;8.18;3.88;;;;;;;;;;5073192;28;20101;-54
2023/04/15 00:14:34;;;;;;;8.23;4.15;;;;;;;;;;5073332;28;20501;-53
2023/04/15 00:17:01;;;;;;;7.88;3.85;;;;;;;;;;5073254;28;20094;-56
2023/04/15 00:19:29;;;;;;;8.00;3.70;;;;;;;;;;5073141;28;20467;-55
2023/04/15 00:21:56;;;;;;;9.02;4.25;;;;;;;;;;5073072;28;20075;-57
2023/04/15 00:24:23;;;;;;;7.45;4.18;;;;;;;;;;5073219;28;20052;-57
2023/04/15 00:26:50;;;;;;;10.50;3.95;;;;;;;;;;5072809;28;20052;-58
2023/04/15 00:29:17;;;;;;;7.35;3.70;;;;;;;;;;5072915;28;20070;-56
2023/04/15 00:31:44;;;;;;;9.13;3.95;;;;;;;;;;5072799;28;20109;-55
2023/04/15 00:34:11;;;;;;;6.45;3.80;;;;;;;;;;5072676;28;20053;-57
2023/04/15 00:36:39;;;;;;;9.07;4.22;;;;;;;;;;5072565;28;20052;-57
2023/04/15 00:39:06;;;;;;;7.15;4.25;;;;;;;;;;5072713;28;20056;-56
2023/04/15 00:41:33;;;;;;;7.75;4.35;;;;;;;;;;5072560;28;20086;-57
2023/04/15 00:44:01;;;;;;;8.52;4.97;;;;;;;;;;5072684;28;20048;-54
2023/04/15 00:46:29;;;;;;;9.90;4.50;;;;;;;;;;5072584;28;20513;-54
2023/04/15 00:48:56;;;;;;;9.23;4.47;;;;;;;;;;5072426;28;20056;-54
2023/04/15 00:51:23;;;;;;;7.28;4.05;;;;;;;;;;5071982;28;20049;-54
2023/04/15 00:53:52;;;;;;;7.10;4.15;;;;;;;;;;5072632;28;20106;-57
2023/04/15 00:56:23;;;;;;;7.25;4.50;;;;;;;;;;5072185;28;20067;-55
2023/04/15 00:58:51;;;;;;;7.65;4.43;;;;;;;;;;5072149;28;20071;-55
2023/04/15 01:01:20;;;;;;;8.02;4.38;;;;;;;;;;5072369;28;20048;-53
2023/04/15 01:03:47;;;;;;;9.00;4.75;;;;;;;;;;5072364;28;20052;-54
2023/04/15 01:06:14;;;;;;;8.50;4.45;;;;;;;;;;5072376;28;20052;-54
2023/04/15 01:08:41;;;;;;;7.65;4.70;;;;;;;;;;5072360;28;20501;-54
2023/04/15 01:11:12;;;;;;;10.38;4.78;;;;;;;;;;5072059;28;20098;-56
2023/04/15 01:13:39;;;;;;;10.00;4.78;;;;;;;;;;5072157;28;20049;-55
2023/04/15 01:16:07;;;;;;;8.18;4.68;;;;;;;;;;5071918;28;20098;-57
2023/04/15 01:18:34;;;;;;;9.00;4.82;;;;;;;;;;5072068;28;20074;-55
2023/04/15 01:21:02;;;;;;;7.38;5.05;;;;;;;;;;5072021;28;20045;-55
2023/04/15 01:23:29;;;;;;;8.30;4.40;;;;;;;;;;5071901;28;20135;-55
2023/04/15 01:25:58;;;;;;;8.80;5.38;;;;;;;;;;5071872;28;20064;-57
2023/04/15 01:28:26;;;;;;;10.05;5.00;;;;;;;;;;5071819;28;20098;-57
2023/04/15 01:31:06;;;;;;;8.90;4.45;;;;;;;;;;5071879;28;20486;-54
2023/04/15 01:33:33;;;;;;;10.57;5.63;;;;;;;;;;5071996;28;20052;-56
2023/04/15 01:36:00;;;;;;;8.70;5.18;;;;;;;;;;5071478;28;20135;-55
2023/04/15 01:38:27;;;;;;;8.02;4.72;;;;;;;;;;5071586;28;20496;-56
2023/04/15 01:40:54;;;;;;;9.38;5.45;;;;;;;;;;5071610;28;20048;-55
2023/04/15 01:43:22;;;;;;;7.88;4.55;;;;;;;;;;5071483;28;20101;-54
2023/04/15 01:45:50;;;;;;;9.82;5.30;;;;;;;;;;5071670;28;20060;-57
2023/04/15 01:48:16;;;;;;;8.25;4.72;;;;;;;;;;5071482;28;20139;-56
2023/04/15 01:50:43;;;;;;;8.00;5.13;;;;;;;;;;5071552;28;20455;-57
2023/04/15 01:53:10;;;;;;;8.95;5.40;;;;;;;;;;5071775;28;20122;-57
2023/04/15 01:55:37;;;;;;;7.95;4.82;;;;;;;;;;5071451;28;20056;-56
2023/04/15 01:58:04;;;;;;;8.63;4.80;;;;;;;;;;5071590;28;20044;-56
2023/04/15 02:00:32;;;;;;;9.40;5.00;;;;;;;;;;5071564;28;20106;-56
2023/04/15 02:02:59;;;;;;;10.20;5.13;;;;;;;;;;5070924;28;20057;-53
2023/04/15 02:05:26;;;;;;;9.57;4.80;;;;;;;;;;5070813;28;20083;-54
2023/04/15 02:07:53;;;;;;;9.23;4.75;;;;;;;;;;5071549;28;20489;-57
2023/04/15 02:10:20;;;;;;;9.05;4.90;;;;;;;;;;5071347;28;20045;-56
2023/04/15 02:12:47;;;;;;;8.85;5.20;;;;;;;;;;5071575;28;20574;-54
2023/04/15 02:15:14;;;;;;;7.65;4.93;;;;;;;;;;5071254;28;20127;-53
2023/04/15 02:17:44;;;;;;;9.48;5.25;;;;;;;;;;5071355;28;20053;-54
2023/04/15 02:20:12;;;;;;;10.98;5.63;;;;;;;;;;5071456;28;20102;-54
2023/04/15 02:22:39;;;;;;;9.00;4.90;;;;;;;;;;5071158;28;20052;-54
2023/04/15 02:25:07;;;;;;;9.23;5.03;;;;;;;;;;5070997;28;20135;-55
2023/04/15 02:27:33;;;;;;;10.40;5.13;;;;;;;;;;5071188;28;20064;-55
2023/04/15 02:30:00;;;;;;;9.65;5.07;;;;;;;;;;5071138;28;20052;-55
2023/04/15 02:32:27;;;;;;;8.00;4.68;;;;;;;;;;5071050;28;20102;-57
2023/04/15 02:34:56;;;;;;;10.57;4.85;;;;;;;;;;5071174;28;20048;-57
2023/04/15 02:37:23;;;;;;;8.80;5.13;;;;;;;;;;5071022;28;20507;-54
2023/04/15 02:39:50;;;;;;;9.35;4.60;;;;;;;;;;5070988;28;20414;-56
2023/04/15 02:42:17;;;;;;;10.38;5.78;;;;;;;;;;5071064;28;20551;-54
2023/04/15 02:44:44;;;;;;;12.27;5.82;;;;;;;;;;5070975;28;20064;-57
2023/04/15 02:47:11;;;;;;;10.55;5.05;;;;;;;;;;5071073;28;20060;-56
2023/04/15 02:49:39;;;;;;;11.45;5.28;;;;;;;;;;5070985;28;20559;-55
2023/04/15 02:52:07;;;;;;;8.07;4.88;;;;;;;;;;5071596;28;20058;-54
2023/04/15 02:54:34;;;;;;;8.75;4.70;;;;;;;;;;5070891;28;20049;-55
2023/04/15 02:57:00;;;;;;;9.18;4.93;;;;;;;;;;5070866;28;20586;-52
2023/04/15 02:59:27;;;;;;;8.60;4.90;;;;;;;;;;5070778;28;20137;-55
2023/04/15 03:01:55;;;;;;;8.80;5.00;;;;;;;;;;5070975;28;20102;-53
2023/04/15 03:04:22;;;;;;;8.25;4.45;;;;;;;;;;5071023;28;20056;-54
2023/04/15 03:06:49;;;;;;;7.93;4.75;;;;;;;;;;5070668;28;20052;-53
2023/04/15 03:09:17;;;;;;;8.52;4.60;;;;;;;;;;5070638;28;20057;-53
2023/04/15 03:11:44;;;;;;;10.60;4.97;;;;;;;;;;5070892;28;20435;-53
2023/04/15 03:14:11;;;;;;;8.38;4.70;;;;;;;;;;5070617;28;20051;-56
2023/04/15 03:16:37;;;;;;;9.95;5.00;;;;;;;;;;5073864;28;20059;-55
2023/04/15 03:19:04;;;;;;;7.95;4.75;;;;;;;;;;5074069;28;20094;-55
2023/04/15 03:21:31;;;;;;;8.65;5.13;;;;;;;;;;5074281;28;20049;-55
2023/04/15 03:23:58;;;;;;;10.07;5.05;;;;;;;;;;5074155;28;20052;-56
2023/04/15 03:26:28;;;;;;;9.85;5.25;;;;;;;;;;5074256;28;20102;-56
2023/04/15 03:28:55;;;;;;;8.90;5.47;;;;;;;;;;5074165;28;20074;-56
2023/04/15 03:31:22;;;;;;;9.10;4.90;;;;;;;;;;5074089;28;20048;-56
2023/04/15 03:33:48;;;;;;;9.25;5.10;;;;;;;;;;5074078;28;20053;-55
2023/04/15 03:36:16;;;;;;;8.93;5.10;;;;;;;;;;5073996;28;20045;-55
2023/04/15 03:38:43;;;;;;;8.68;4.70;;;;;;;;;;5073709;28;20493;-53
2023/04/15 03:41:09;;;;;;;8.77;4.88;;;;;;;;;;5074071;28;20097;-55
2023/04/15 03:43:38;;;;;;;8.63;4.47;;;;;;;;;;5073643;28;20049;-53
2023/04/15 03:46:05;;;;;;;8.50;4.40;;;;;;;;;;5073775;28;20052;-53
2023/04/15 03:48:32;;;;;;;11.80;5.18;;;;;;;;;;5074399;28;20445;-55
2023/04/15 03:50:59;;;;;;;8.95;4.65;;;;;;;;;;5073472;28;20110;-52
2023/04/15 03:53:26;;;;;;;8.98;4.82;;;;;;;;;;5073649;28;20049;-52
2023/04/15 03:55:52;;;;;;;9.15;5.15;;;;;;;;;;5073825;28;20056;-54
2023/04/15 03:58:19;;;;;;;9.10;5.22;;;;;;;;;;5073581;28;20094;-57
2023/04/15 04:00:47;;;;;;;10.65;5.00;;;;;;;;;;5073249;28;20094;-54
2023/04/15 04:03:14;;;;;;;9.13;4.75;;;;;;;;;;5073294;28;20193;-54
2023/04/15 04:05:42;;;;;;;10.25;5.13;;;;;;;;;;5073315;28;20052;-57
2023/04/15 04:08:12;;;;;;;10.60;5.00;;;;;;;;;;5073227;28;20216;-56
2023/04/15 04:10:39;;;;;;;10.13;4.80;;;;;;;;;;5073220;28;20118;-54
2023/04/15 04:13:06;;;;;;;10.80;5.00;;;;;;;;;;5073480;28;20426;-52
2023/04/15 04:15:33;;;;;;;9.30;4.53;;;;;;;;;;5073390;28;20080;-53
2023/04/15 04:18:02;;;;;;;7.18;4.55;;;;;;;;;;5073131;28;20074;-54
2023/04/15 04:20:30;;;;;;;9.02;4.68;;;;;;;;;;5072968;28;20239;-55
2023/04/15 04:22:57;;;;;;;9.40;5.05;;;;;;;;;;5073169;28;20052;-55
2023/04/15 04:25:24;;;;;;;9.18;4.82;;;;;;;;;;5072943;28;20064;-55
2023/04/15 04:27:51;;;;;;;11.30;4.88;;;;;;;;;;5072366;28;20056;-55
2023/04/15 04:30:18;;;;;;;7.18;4.72;;;;;;;;;;5073041;28;20444;-57
2023/04/15 04:32:45;;;;;;;9.77;4.72;;;;;;;;;;5073116;28;20075;-55
2023/04/15 04:35:14;;;;;;;9.52;4.53;;;;;;;;;;5072815;28;20359;-56
2023/04/15 04:37:40;;;;;;;5.93;4.03;;;;;;;;;;5072798;28;20045;-53
2023/04/15 04:40:09;;;;;;;7.22;4.53;;;;;;;;;;5072721;28;20050;-55
2023/04/15 04:42:36;;;;;;;9.40;4.53;;;;;;;;;;5073076;28;20441;-56
2023/04/15 04:45:03;;;;;;;7.97;4.07;;;;;;;;;;5072740;28;20382;-53
2023/04/15 04:47:30;;;;;;;9.25;4.07;;;;;;;;;;5073014;28;20521;-54
2023/04/15 04:49:57;;;;;;;6.43;3.85;;;;;;;;;;5072811;28;20071;-55
2023/04/15 04:52:25;;;;;;;8.57;4.65;;;;;;;;;;5072785;28;20056;-56
2023/04/15 04:54:52;;;;;;;11.15;4.70;;;;;;;;;;5072446;28;20059;-51
2023/04/15 04:57:19;;;;;;;7.85;4.35;;;;;;;;;;5072707;28;20060;-53
2023/04/15 04:59:45;;;;;;;8.73;4.03;;;;;;;;;;5072237;28;20052;-54
2023/04/15 05:02:12;;;;;;;7.00;4.78;;;;;;;;;;5072565;28;20048;-56
2023/04/15 05:04:40;;;;;;;6.93;3.58;;;;;;;;;;5072811;28;20425;-54
2023/04/15 05:07:07;;;;;;;8.15;3.90;;;;;;;;;;5072298;28;20132;-55
2023/04/15 05:09:36;;;;;;;7.80;3.88;;;;;;;;;;5072286;28;20148;-55
2023/04/15 05:12:02;;;;;;;9.02;3.53;;;;;;;;;;5072377;28;20045;-56
2023/04/15 05:14:29;;;;;;;6.93;3.20;;;;;;;;;;5072625;28;20060;-56
2023/04/15 05:16:56;;;;;;;6.85;3.83;;;;;;;;;;5072246;28;20459;-57
2023/04/15 05:19:23;;;;;;;6.93;4.13;;;;;;;;;;5072071;28;20102;-57
2023/04/15 05:21:50;;;;;;;8.98;3.97;;;;;;;;;;5072211;28;20044;-58
2023/04/15 05:24:17;;;;;;;9.00;3.78;;;;;;;;;;5072191;28;20052;-56
2023/04/15 05:26:45;;;;;;;7.07;3.17;;;;;;;;;;5072158;28;20049;-56
2023/04/15 05:29:12;;;;;;;7.85;3.30;;;;;;;;;;5072380;28;20452;-58
2023/04/15 05:31:39;;;;;;;6.70;3.25;;;;;;;;;;5072036;28;20059;-57
2023/04/15 05:34:06;;;;;;;5.07;2.97;;;;;;;;;;5072251;28;20054;-53
2023/04/15 05:36:32;;;;;;;6.68;3.45;;;;;;;;;;5072023;28;20044;-54
2023/04/15 05:38:59;;;;;;;10.68;4.40;;;;;;;;;;5081852;22;20052;-51
2023/04/15 05:41:26;;;;;;;6.05;3.25;;;;;;;;;;5071674;28;20044;-50
2023/04/15 05:43:54;;;;;;;8.23;3.13;;;;;;;;;;5072117;28;20058;-52
2023/04/15 05:46:21;;;;;;;6.15;3.08;;;;;;;;;;5071535;28;20056;-51
2023/04/15 05:48:48;;;;;;;7.93;3.33;;;;;;;;;;5071894;28;20079;-55
2023/04/15 05:51:15;;;;;;;7.55;3.38;;;;;;;;;;5072103;28;20048;-54
2023/04/15 05:53:42;;;;;;;6.68;2.88;;;;;;;;;;5071795;28;20154;-51
2023/04/15 05:56:09;;;;;;;7.18;3.10;;;;;;;;;;5071571;28;20113;-57
2023/04/15 05:58:36;;;;;;;6.40;3.38;;;;;;;;;;5071650;28;20044;-53
2023/04/15 06:01:04;;;;;;;7.40;3.20;;;;;;;;;;5071535;28;20070;-53
2023/04/15 06:03:31;;;;;;;7.53;3.20;;;;;;;;;;5071749;28;20080;-53
2023/04/15 06:05:58;;;;;;;5.97;2.83;;;;;;;;;;5071618;28;20454;-51
2023/04/15 06:08:24;;;;;;;7.55;3.08;;;;;;;;;;5071721;28;20048;-54
2023/04/15 06:10:51;;;;;;;5.18;3.20;;;;;;;;;;5071589;28;20098;-51
2023/04/15 06:13:18;;;;;;;4.70;2.70;;;;;;;;;;5071909;28;20052;-52
2023/04/15 06:15:45;;;;;;;7.07;2.72;;;;;;;;;;5071361;28;20054;-54
2023/04/15 06:18:13;;;;;;;6.15;3.20;;;;;;;;;;5071379;28;20052;-50
2023/04/15 06:20:40;;;;;;;6.97;2.88;;;;;;;;;;5071180;28;20513;-51
2023/04/15 06:23:07;;;;;;;6.32;3.03;;;;;;;;;;5071854;28;20066;-54
2023/04/15 06:25:34;;;;;;;5.68;2.70;;;;;;;;;;5071537;28;20048;-54
2023/04/15 06:28:01;;;;;;;6.88;2.45;;;;;;;;;;5071417;28;20083;-51
2023/04/15 06:30:27;;;;;;;8.48;2.72;;;;;;;;;;5071249;28;20052;-54
2023/04/15 06:32:55;;;;;;;4.13;2.10;;;;;;;;;;5071741;28;20044;-50
2023/04/15 06:35:23;;;;;;;5.05;2.13;;;;;;;;;;5071297;28;20067;-54
2023/04/15 06:37:50;;;;;;;7.78;2.70;;;;;;;;;;5071211;28;20059;-54
2023/04/15 06:40:17;;;;;;;7.88;3.15;;;;;;;;;;5071058;28;20069;-52
2023/04/15 06:42:44;;;;;;;4.90;2.33;;;;;;;;;;5071216;28;20555;-58
2023/04/15 06:45:11;;;;;;;8.70;2.80;;;;;;;;;;5071031;28;20493;-55
2023/04/15 06:47:38;;;;;;;7.07;2.53;;;;;;;;;;5071135;28;20135;-54
2023/04/15 06:50:06;;;;;;;4.90;2.28;;;;;;;;;;5072079;28;20406;-50
2023/04/15 06:52:34;;;;;;;6.90;2.55;;;;;;;;;;5071124;28;20053;-49
2023/04/15 06:55:01;;;;;;;5.40;2.30;;;;;;;;;;5054677;28;20412;-50
2023/04/15 06:57:28;;;;;;;5.13;2.40;;;;;;;;;;5054266;28;20055;-54
2023/04/15 06:59:55;;;;;;;6.72;2.83;;;;;;;;;;5054531;28;20045;-52
2023/04/15 07:02:23;;;;;;;5.00;2.58;;;;;;;;;;5054550;28;20657;-56
2023/04/15 07:04:49;;;;;;;6.55;2.97;;;;;;;;;;5054621;28;20052;-53
2023/04/15 07:07:17;;;;;;;5.30;2.47;;;;;;;;;;5054608;28;20052;-53
2023/04/15 07:09:46;;;;;;;5.10;2.20;;;;;;;;;;5054586;28;20456;-53
2023/04/15 07:12:13;;;;;;;5.95;3.30;;;;;;;;;;5054595;28;20061;-54
2023/04/15 07:14:40;;;;;;;6.57;2.97;;;;;;;;;;5054330;28;20053;-53
2023/04/15 07:17:07;;;;;;;6.65;2.53;;;;;;;;;;5054394;28;20049;-53
2023/04/15 07:19:33;;;;;;;7.43;2.72;;;;;;;;;;5054319;28;20490;-55
2023/04/15 07:22:01;;;;;;;7.78;2.60;;;;;;;;;;5054378;28;20437;-56
2023/04/15 07:24:27;;;;;;;4.63;2.45;;;;;;;;;;5054046;28;20528;-53
2023/04/15 07:26:56;;;;;;;5.30;2.22;;;;;;;;;;5053508;28;20107;-55
2023/04/15 07:29:23;;;;;;;5.07;2.30;;;;;;;;;;5054346;28;20080;-52
2023/04/15 07:31:50;;;;;;;7.53;2.40;;;;;;;;;;5053990;28;20567;-55
2023/04/15 07:34:19;;;;;;;5.05;2.17;;;;;;;;;;5054499;28;20103;-53
2023/04/15 07:36:49;;;;;;;4.88;2.20;;;;;;;;;;5054033;28;20494;-55
2023/04/15 07:39:16;;;;;;;4.40;1.90;;;;;;;;;;5053503;28;20083;-53
2023/04/15 07:41:43;;;;;;;4.63;2.25;;;;;;;;;;5053768;28;20057;-53
2023/04/15 07:44:12;;;;;;;6.03;2.13;;;;;;;;;;5053529;28;20207;-56
2023/04/15 07:46:38;;;;;;;7.00;2.10;;;;;;;;;;5053826;28;20067;-56
2023/04/15 07:49:06;;;;;;;8.40;2.30;;;;;;;;;;5053511;28;20124;-56
2023/04/15 07:51:33;;;;;;;6.05;2.53;;;;;;;;;;5053572;28;20102;-51
2023/04/15 07:54:00;;;;;;;8.68;2.63;;;;;;;;;;5053538;28;20080;-53
2023/04/15 07:56:26;;;;;;;6.13;2.42;;;;;;;;;;5052914;28;20422;-55
2023/04/15 07:58:53;;;;;;;5.78;2.30;;;;;;;;;;5052977;28;20060;-56
2023/04/15 08:01:21;;;;;;;5.53;2.28;;;;;;;;;;5050741;28;20071;-54
2023/04/15 08:03:48;;;;;;;5.85;2.30;;;;;;;;;;5053598;28;20096;-55
2023/04/15 08:06:15;;;;;;;7.20;3.20;;;;;;;;;;5053364;28;20051;-51
2023/04/15 08:08:42;;;;;;;6.00;2.50;;;;;;;;;;5052951;28;20131;-52
2023/04/15 08:11:09;;;;;;;7.07;2.20;;;;;;;;;;5052779;28;20091;-53
2023/04/15 08:13:36;;;;;;;4.60;2.53;;;;;;;;;;5053014;28;20048;-50
2023/04/15 08:16:17;;;;;;;5.15;2.40;;;;;;;;;;5053108;28;20057;-55
2023/04/15 08:18:45;;;;;;;;;;;;;;;;;;5048235;28;20094;-53
2023/04/15 08:21:12;;;;;;;6.13;2.50;;;;;;;;;;5053142;28;19921;-52
2023/04/15 08:23:39;;;;;;;6.78;2.42;;;;;;;;;;5053535;28;20111;-50
2023/04/15 08:26:06;;;;;;;4.95;2.58;;;;;;;;;;5052858;28;20510;-50
2023/04/15 08:28:33;;;;;;;4.78;2.22;;;;;;;;;;5053534;28;20041;-55
2023/04/15 08:31:00;;;;;;;4.38;2.47;;;;;;;;;;5052911;28;20053;-51
2023/04/15 08:33:27;;;;;;;6.05;2.60;;;;;;;;;;5053107;28;20099;-50
2023/04/15 08:35:56;;;;;;;7.88;2.95;;;;;;;;;;5052774;28;20052;-54
2023/04/15 08:38:23;;;;;;;6.32;2.78;;;;;;;;;;5052542;28;20102;-50
2023/04/15 08:40:50;;;;;;;6.18;2.70;;;;;;;;;;5052921;28;20434;-56
2023/04/15 08:43:23;;;;;;;5.43;2.80;;;;;;;;;;5052849;28;20049;-52
2023/04/15 08:45:51;;;;;;;5.95;2.97;;;;;;;;;;5052933;28;20139;-55
2023/04/15 08:48:19;;;;;;;6.22;2.70;;;;;;;;;;5052667;28;20088;-54
2023/04/15 08:50:47;;;;;;;4.68;2.63;;;;;;;;;;5052574;28;20052;-50
2023/04/15 08:53:16;;;;;;;4.32;2.80;;;;;;;;;;5053047;28;20048;-53
2023/04/15 08:55:46;;;;;;;6.63;2.60;;;;;;;;;;5052779;28;20053;-51
2023/04/15 08:58:14;;;;;;;5.35;2.60;;;;;;;;;;5052475;28;20102;-56
2023/04/15 09:00:42;;;;;;;5.80;2.70;;;;;;;;;;5052605;28;20052;-55
2023/04/15 09:03:09;;;;;;;5.95;2.90;;;;;;;;;;5052507;28;20052;-55
2023/04/15 09:05:37;;;;;;;7.25;2.42;;;;;;;;;;5052396;28;20391;-52
2023/04/15 09:08:05;;;;;;;5.78;2.58;;;;;;;;;;5052620;28;20057;-51
2023/04/15 09:10:33;;;;;;;9.07;3.38;;;;;;;;;;5052303;28;20056;-54
2023/04/15 09:13:01;;;;;;;7.68;3.13;;;;;;;;;;5052115;28;20446;-56
2023/04/15 09:15:29;;;;;;;6.78;2.97;;;;;;;;;;5052598;28;20148;-52
2023/04/15 09:17:56;;;;;;;6.75;3.28;;;;;;;;;;5052189;28;20049;-54
2023/04/15 09:20:23;;;;;;;7.85;3.53;;;;;;;;;;5052456;28;20052;-52
2023/04/15 09:22:52;;;;;;;7.30;2.90;;;;;;;;;;5052338;28;20102;-53
2023/04/15 09:25:29;;;;;;;5.82;2.72;;;;;;;;;;5052127;28;20152;-54
2023/04/15 09:27:59;;;;;;;6.82;3.35;;;;;;;;;;5052249;28;20110;-53
2023/04/15 09:30:27;;;;;;;6.20;3.33;;;;;;;;;;5052481;28;20049;-50
2023/04/15 09:32:56;;;;;;;8.98;4.78;;;;;;;;;;5051868;28;20106;-52
2023/04/15 09:35:24;;;;;;;7.57;3.28;;;;;;;;;;5052001;28;20464;-55
2023/04/15 09:37:52;;;;;;;7.32;3.03;;;;;;;;;;5052496;28;20052;-51
2023/04/15 09:40:32;;;;;;;5.25;2.90;;;;;;;;;;5051972;28;20099;-54
2023/04/15 09:43:01;;;;;;;6.78;2.95;;;;;;;;;;5051988;28;20071;-54
2023/04/15 09:45:29;;;;;;;8.80;3.38;;;;;;;;;;5051842;28;20045;-56
2023/04/15 09:47:57;;;;;;;7.45;3.13;;;;;;;;;;5052117;28;20521;-55
2023/04/15 09:50:28;;;;;;;10.90;3.60;;;;;;;;;;5051701;28;20076;-56
2023/04/15 09:52:55;;;;;;;6.30;3.30;;;;;;;;;;5051722;28;20132;-56
2023/04/15 09:55:22;;;;;;;6.93;3.60;;;;;;;;;;5051689;28;20461;-56
2023/04/15 09:57:49;;;;;;;8.35;3.78;;;;;;;;;;5051276;28;20099;-56
2023/04/15 10:00:17;;;;;;;6.63;3.17;;;;;;;;;;5051175;28;20045;-55
2023/04/15 10:02:45;;;;;;;7.53;4.40;;;;;;;;;;5051170;28;20071;-55
2023/04/15 10:05:15;;;;;;;7.53;3.63;;;;;;;;;;5051356;28;20053;-55
2023/04/15 10:07:42;;;;;;;7.63;4.07;;;;;;;;;;5051630;28;20092;-53
2023/04/15 10:10:10;;;;;;;9.25;3.70;;;;;;;;;;5051361;28;20045;-52
2023/04/15 10:12:38;;;;;;;6.68;3.78;;;;;;;;;;5051657;28;20478;-53
2023/04/15 10:15:06;;;;;;;7.15;3.65;;;;;;;;;;5051589;28;20049;-53
2023/04/15 10:17:36;;;;;;;8.20;4.30;;;;;;;;;;5051093;28;20509;-52
2023/04/15 10:20:05;;;;;;;7.82;3.80;;;;;;;;;;5051756;28;20045;-68
2023/04/15 10:22:32;;;;;;;8.07;3.53;;;;;;;;;;5051482;28;20588;-50
2023/04/15 10:24:59;;;;;;;8.25;4.60;;;;;;;;;;5052286;28;20049;-51
2023/04/15 10:27:27;;;;;;;8.07;4.10;;;;;;;;;;5055313;28;20139;-67
2023/04/15 10:29:55;;;;;;;7.95;4.18;;;;;;;;;;5055548;28;20057;-54
2023/04/15 10:32:24;;;;;;;7.13;4.13;;;;;;;;;;5055243;28;20048;-57
2023/04/15 10:34:53;;;;;;;8.18;4.15;;;;;;;;;;5055234;28;20044;-55
2023/04/15 10:37:21;;;;;;;7.82;4.72;;;;;;;;;;5054699;28;20053;-57
2023/04/15 10:39:49;;;;;;;9.00;4.57;;;;;;;;;;5055977;28;20509;-53
2023/04/15 10:42:17;;;;;;;7.93;4.63;;;;;;;;;;5056193;28;20449;-59
2023/04/15 10:44:48;;;;;;;7.93;4.15;;;;;;;;;;5057104;28;20053;-58
2023/04/15 10:47:18;;;;;;;9.32;5.05;;;;;;;;;;5055269;28;20072;-59
2023/04/15 10:49:48;;;;;;;8.40;4.63;;;;;;;;;;5052560;28;20379;-59
2023/04/15 10:52:18;;;;;;;12.15;4.88;;;;;;;;;;5054666;28;20128;-58
2023/04/15 10:54:45;;;;;;;8.53;4.93;;;;;;;;;;5054923;28;20410;-59
2023/04/15 10:57:21;;;;;;;8.88;4.65;;;;;;;;;;5054977;28;20285;-59
2023/04/15 11:00:05;;;;;;;9.55;5.40;;;;;;;;;;5054860;28;20045;-58
2023/04/15 11:02:43;;;;;;;8.82;5.03;;;;;;;;;;5055238;28;20514;-57
2023/04/15 11:05:10;;;;;;;9.23;4.95;;;;;;;;;;5055211;28;20049;-59
2023/04/15 11:07:40;;;;;;;8.38;5.22;;;;;;;;;;5054658;28;20060;-56
2023/04/15 11:10:48;;;;;;;9.50;5.30;;;;;;;;;;5054995;28;20045;-59
2023/04/15 11:13:17;;;;;;;9.35;4.93;;;;;;;;;;5044766;28;20049;-57
2023/04/15 11:15:45;;;;;;;8.38;4.65;;;;;;;;;;5054905;28;20114;-55
2023/04/15 11:18:13;;;;;;;9.18;4.50;;;;;;;;;;5054770;28;20049;-60
2023/04/15 11:20:43;;;;;;;8.82;4.97;;;;;;;;;;5044812;28;20529;-54
2023/04/15 11:23:12;;;;;;;9.68;5.10;;;;;;;;;;5054885;28;20473;-53
2023/04/15 11:25:39;;;;;;;8.10;4.97;;;;;;;;;;5054826;28;20045;-58
2023/04/15 11:28:06;;;;;;;9.57;5.38;;;;;;;;;;5054453;28;20057;-56
2023/04/15 11:30:35;;;;;;;7.40;4.72;;;;;;;;;;5054510;28;20140;-58
2023/04/15 11:33:04;;;;;;;8.57;5.60;;;;;;;;;;5054716;28;20143;-59
2023/04/15 11:35:31;;;;;;;9.02;5.15;;;;;;;;;;5054145;28;20053;-57
2023/04/15 11:37:58;;;;;;;10.43;5.47;;;;;;;;;;5054389;28;20103;-59
2023/04/15 11:40:28;;;;;;;10.50;5.47;;;;;;;;;;5054139;28;20052;-58
2023/04/15 11:43:05;;;;;;;10.00;6.20;;;;;;;;;;5054164;28;20102;-59
2023/04/15 11:45:32;;;;;;;12.90;6.03;;;;;;;;;;5054119;28;20126;-58
2023/04/15 11:48:06;;;;;;;11.88;6.18;;;;;;;;;;5054230;28;20441;-58
2023/04/15 11:50:33;;;;;;;10.57;5.85;;;;;;;;;;5053967;28;20128;-58
2023/04/15 11:53:01;;;;;;;10.35;5.90;;;;;;;;;;5053944;28;20092;-56
2023/04/15 11:55:30;;;;;;;11.73;5.82;;;;;;;;;;5053881;28;20120;-58
2023/04/15 11:58:09;;;;;;;9.35;5.55;;;;;;;;;;5053490;28;20116;-58
2023/04/15 12:00:36;;;;;;;9.05;5.25;;;;;;;;;;5053569;28;20049;-57
2023/04/15 12:03:25;;;;;;;9.68;5.10;;;;;;;;;;5053647;28;20041;-58
2023/04/15 12:06:16;;;;;;;8.85;5.18;;;;;;;;;;5053771;28;20575;-57
2023/04/15 12:09:11;;;;;;;8.82;5.28;;;;;;;;;;5053384;28;20053;-57
2023/04/15 12:11:44;;;;;;;10.95;5.57;;;;;;;;;;5040666;28;20454;-55
2023/04/15 12:14:24;;;;;;;10.02;5.20;;;;;;;;;;5053815;28;20052;-56
2023/04/15 12:16:52;;;;;;;15.02;7.40;;;;;;;;;;5053680;28;20053;-58
2023/04/15 12:19:24;;;;;;;9.65;4.78;;;;;;;;;;5053307;28;20553;-58
2023/04/15 12:21:52;;;;;;;6.47;4.05;;;;;;;;;;5053841;28;20397;-55
2023/04/15 12:24:21;;;;;;;7.63;4.43;;;;;;;;;;5053283;28;20056;-57
2023/04/15 12:26:51;;;;;;;8.05;4.55;;;;;;;;;;5052969;28;20140;-58
2023/04/15 12:29:18;;;;;;;7.50;4.32;;;;;;;;;;5053068;28;20421;-58
2023/04/15 12:31:50;;;;;;;5.85;4.05;;;;;;;;;;5052748;28;20490;-56
2023/04/15 12:34:18;;;;;;;7.72;3.97;;;;;;;;;;5053432;28;20048;-57
2023/04/15 12:36:45;;;;;;;6.13;3.92;;;;;;;;;;5052534;28;20048;-58
2023/04/15 12:39:13;;;;;;;6.95;3.58;;;;;;;;;;5052719;28;20516;-58
2023/04/15 12:41:39;;;;;;;5.53;3.20;;;;;;;;;;5053536;28;20367;-57
2023/04/15 12:44:08;;;;;;;6.63;3.45;;;;;;;;;;5052756;28;20449;-57
2023/04/15 12:46:35;;;;;;;6.53;3.00;;;;;;;;;;5052661;28;20049;-58
2023/04/15 12:49:02;;;;;;;6.50;2.72;;;;;;;;;;5051771;28;20057;-57
2023/04/15 12:51:30;;;;;;;11.40;5.93;;;;;;;;;;5052646;28;20159;-56
2023/04/15 12:53:57;;;;;;;8.85;4.75;;;;;;;;;;5053186;28;20099;-58
2023/04/15 12:56:24;;;;;;;5.18;3.38;;;;;;;;;;5052679;28;20395;-56
2023/04/15 12:58:51;;;;;;;6.15;3.50;;;;;;;;;;5052354;28;20060;-57
2023/04/15 13:01:19;;;;;;;9.43;4.53;;;;;;;;;;5052676;28;20049;-55
2023/04/15 13:03:46;;;;;;;6.45;3.65;;;;;;;;;;5052687;28;20080;-57
2023/04/15 13:06:13;;;;;;;8.73;3.75;;;;;;;;;;5076453;22;20049;-77
2023/04/15 13:08:40;;;;;;;8.43;4.28;;;;;;;;;;5061009;28;20132;-79
2023/04/15 13:11:07;;;;;;;9.57;4.20;;;;;;;;;;5058722;28;20158;-80
2023/04/15 13:13:33;;;;;;;7.88;4.90;;;;;;;;;;5057771;28;20499;-77
2023/04/15 13:16:00;;;;;;;6.85;4.10;;;;;;;;;;5054779;28;20044;-77
2023/04/15 13:18:29;;;;;;;9.05;4.53;;;;;;;;;;5054190;28;20045;-76
2023/04/15 13:20:56;;;;;;;9.10;4.97;;;;;;;;;;5054654;28;20044;-77
2023/04/15 13:23:23;;;;;;;7.28;4.32;;;;;;;;;;5056258;28;20139;-77
2023/04/15 13:25:50;;;;;;;7.13;5.03;;;;;;;;;;5057458;28;20049;-77
2023/04/15 13:28:16;;;;;;;7.82;4.90;;;;;;;;;;5048484;28;20103;-78
2023/04/15 13:30:44;;;;;;;8.55;4.47;;;;;;;;;;5054430;28;20052;-78
2023/04/15 13:33:11;;;;;;;10.98;5.10;;;;;;;;;;5053519;28;20052;-78
2023/04/15 13:35:39;;;;;;;8.13;5.70;;;;;;;;;;5055887;28;20075;-78
2023/04/15 13:38:06;;;;;;;8.80;5.10;;;;;;;;;;5052249;28;20048;-76
2023/04/15 13:40:33;;;;;;;9.48;5.28;;;;;;;;;;5051805;28;20049;-77
2023/04/15 13:42:59;;;;;;;7.80;4.65;;;;;;;;;;5053092;28;20077;-76
2023/04/15 13:45:26;;;;;;;8.38;4.90;;;;;;;;;;5052933;28;20071;-77
2023/04/15 13:47:53;;;;;;;11.13;5.10;;;;;;;;;;5055640;28;20087;-77
2023/04/15 13:50:20;;;;;;;8.65;5.57;;;;;;;;;;5056186;28;20083;-77
2023/04/15 13:52:48;;;;;;;8.25;4.80;;;;;;;;;;5055268;28;20059;-76
2023/04/15 13:55:14;;;;;;;9.13;5.35;;;;;;;;;;5054660;28;20041;-78
2023/04/15 13:57:41;;;;;;;10.40;5.32;;;;;;;;;;5063751;28;20118;-77
2023/04/15 14:00:09;;;;;;;6.53;4.70;;;;;;;;;;5057908;28;20044;-77
2023/04/15 14:02:36;;;;;;;8.55;4.93;;;;;;;;;;5057430;28;20107;-79
2023/04/15 14:05:02;;;;;;;11.45;4.80;;;;;;;;;;5056484;28;20067;-78
2023/04/15 14:07:29;;;;;;;6.95;4.70;;;;;;;;;;5054300;28;20083;-78
2023/04/15 14:09:57;;;;;;;7.95;4.15;;;;;;;;;;5055743;28;20068;-78
2023/04/15 14:12:24;;;;;;;7.63;4.40;;;;;;;;;;5056467;28;20047;-78
2023/04/15 14:14:51;;;;;;;7.30;3.70;;;;;;;;;;5054552;28;20052;-77
2023/04/15 14:17:17;;;;;;;5.45;3.47;;;;;;;;;;5053857;28;20060;-78
2023/04/15 14:19:44;;;;;;;5.72;3.17;;;;;;;;;;5052449;28;20052;-77
2023/04/15 14:22:10;;;;;;;10.40;5.85;;;;;;;;;;5056456;28;20075;-76
2023/04/15 14:24:38;;;;;;;7.93;3.85;;;;;;;;;;5054619;28;20128;-78
2023/04/15 14:27:07;;;;;;;7.78;3.67;;;;;;;;;;5054335;28;20049;-78
2023/04/15 14:29:34;;;;;;;6.28;3.60;;;;;;;;;;5053700;28;20051;-77
2023/04/15 14:32:00;;;;;;;7.03;3.80;;;;;;;;;;5050407;28;20522;-77
2023/04/15 14:34:27;;;;;;;6.57;4.05;;;;;;;;;;5050366;28;20128;-77
2023/04/15 14:36:54;;;;;;;9.27;4.70;;;;;;;;;;5051240;28;20479;-78
2023/04/15 14:39:20;;;;;;;7.15;4.47;;;;;;;;;;5054471;28;20044;-77
2023/04/15 14:41:47;;;;;;;6.78;4.35;;;;;;;;;;5053883;28;20458;-78
2023/04/15 14:44:15;;;;;;;6.80;4.38;;;;;;;;;;5054087;28;20049;-77
2023/04/15 14:46:42;;;;;;;7.10;4.75;;;;;;;;;;5052502;28;20348;-77